createdAt,value
2023-01-02T00:01:28.530Z,10.04
2023-01-02T00:03:57.376Z,10.05
2023-01-02T00:06:26.986Z,10.08
2023-01-02T00:08:53.596Z,10.08
2023-01-02T00:11:20.222Z,10.09
2023-01-02T00:13:46.741Z,10.09
2023-01-02T00:16:13.248Z,10.10
2023-01-02T00:18:39.944Z,10.08
2023-01-02T00:21:07.347Z,10.07
2023-01-02T00:23:35.036Z,10.04
2023-01-02T00:26:01.833Z,10.05
2023-01-02T00:28:29.222Z,10.05
2023-01-02T00:30:55.785Z,10.04
2023-01-02T00:33:22.955Z,10.02
2023-01-02T00:35:49.462Z,10.02
2023-01-02T00:38:18.244Z,10.04
2023-01-02T00:40:44.670Z,10.04
2023-01-02T00:43:11.103Z,10.04
2023-01-02T00:45:37.527Z,10.04
2023-01-02T00:48:04.164Z,10.03
2023-01-02T00:50:30.573Z,10.00
2023-01-02T00:52:57.044Z,9.98
2023-01-02T00:55:23.709Z,9.98
2023-01-02T00:57:50.164Z,9.96
2023-01-02T01:00:23.426Z,9.96
2023-01-02T01:02:50.364Z,9.93
2023-01-02T01:05:17.002Z,9.92
2023-01-02T01:07:43.612Z,9.92
2023-01-02T01:10:10.074Z,9.92
2023-01-02T01:12:36.540Z,9.94
2023-01-02T01:15:03.185Z,9.92
2023-01-02T01:17:31.432Z,9.95
2023-01-02T01:19:58.030Z,9.96
2023-01-02T01:22:24.440Z,9.99
2023-01-02T01:24:51.224Z,10.00
2023-01-02T01:27:17.650Z,10.05
2023-01-02T01:29:44.158Z,10.06
2023-01-02T01:32:10.664Z,10.08
2023-01-02T01:34:39.551Z,10.09
2023-01-02T01:37:06.036Z,10.11
2023-01-02T01:39:32.482Z,10.11
2023-01-02T01:42:00.390Z,10.15
2023-01-02T01:44:46.687Z,10.16
2023-01-02T01:47:22.980Z,10.17
2023-01-02T01:50:05.245Z,10.18
2023-01-02T01:52:35.061Z,10.18
2023-01-02T01:55:12.502Z,10.22
2023-01-02T01:57:51.280Z,10.20
2023-01-02T02:00:17.769Z,10.20
2023-01-02T02:02:47.991Z,10.20
2023-01-02T02:05:19.525Z,10.20
2023-01-02T02:07:57.010Z,10.22
2023-01-02T02:10:23.517Z,10.21
2023-01-02T02:12:50.185Z,10.23
2023-01-02T02:15:56.989Z,10.24
2023-01-02T02:18:53.655Z,10.25
2023-01-02T02:21:33.138Z,10.26
2023-01-02T02:24:44.142Z,10.26
2023-01-02T02:27:34.834Z,10.26
2023-01-02T02:30:03.955Z,10.27
2023-01-02T02:32:54.503Z,10.28
2023-01-02T02:35:43.907Z,10.32
2023-01-02T02:38:32.296Z,10.33
2023-01-02T02:41:17.369Z,10.36
2023-01-02T02:44:08.257Z,10.38
2023-01-02T02:46:40.491Z,10.39
2023-01-02T02:49:13.877Z,10.39
2023-01-02T02:51:59.028Z,10.43
2023-01-02T02:54:37.766Z,10.46
2023-01-02T02:57:07.167Z,10.45
2023-01-02T02:59:35.217Z,10.51
2023-01-02T03:02:03.322Z,10.52
2023-01-02T03:04:29.844Z,10.53
2023-01-02T03:07:22.558Z,10.59
2023-01-02T03:10:19.492Z,10.61
2023-01-02T03:13:23.389Z,10.64
2023-01-02T03:16:07.594Z,10.67
2023-01-02T03:19:04.291Z,10.69
2023-01-02T03:21:36.183Z,10.69
2023-01-02T03:24:07.694Z,10.72
2023-01-02T03:26:36.411Z,10.73
2023-01-02T03:29:11.304Z,10.76
2023-01-02T03:31:40.900Z,10.79
2023-01-02T03:34:12.551Z,10.82
2023-01-02T03:36:42.700Z,10.84
2023-01-02T03:39:22.204Z,10.85
2023-01-02T03:41:57.862Z,10.85
2023-01-02T03:44:28.768Z,10.87
2023-01-02T03:47:21.220Z,10.91
2023-01-02T03:49:51.983Z,10.94
2023-01-02T03:52:24.068Z,10.97
2023-01-02T03:54:53.538Z,10.98
2023-01-02T03:57:28.690Z,11.01
2023-01-02T04:00:00.674Z,10.99
2023-01-02T04:02:27.158Z,11.01
2023-01-02T04:04:57.489Z,11.02
2023-01-02T04:07:42.457Z,11.03
2023-01-02T04:10:10.830Z,11.05
2023-01-02T04:12:39.974Z,11.05
2023-01-02T04:15:09.625Z,11.05
2023-01-02T04:17:43.152Z,11.05
2023-01-02T04:20:30.682Z,11.04
2023-01-02T04:23:10.063Z,11.06
2023-01-02T04:25:51.152Z,11.04
2023-01-02T04:28:32.091Z,11.04
2023-01-02T04:31:04.396Z,11.07
2023-01-02T04:33:35.398Z,11.05
2023-01-02T04:36:13.209Z,11.07
2023-01-02T04:38:42.325Z,11.06
2023-01-02T04:41:10.355Z,11.05
2023-01-02T04:43:36.811Z,11.06
2023-01-02T04:46:03.514Z,11.04
2023-01-02T04:48:29.951Z,11.06
2023-01-02T04:50:56.564Z,11.05
2023-01-02T04:53:23.073Z,11.06
2023-01-02T04:55:56.434Z,11.05
2023-01-02T04:58:23.277Z,11.05
2023-01-02T05:00:49.806Z,11.04
2023-01-02T05:03:16.299Z,11.02
2023-01-02T05:05:42.774Z,11.03
2023-01-02T05:08:15.682Z,11.03
2023-01-02T05:10:43.029Z,11.03
2023-01-02T05:13:09.535Z,11.04
2023-01-02T05:15:36.031Z,11.04
2023-01-02T05:18:02.548Z,11.04
2023-01-02T05:20:28.998Z,11.03
2023-01-02T05:23:14.159Z,11.05
2023-01-02T05:25:40.579Z,11.07
2023-01-02T05:28:07.176Z,11.07
2023-01-02T05:30:33.669Z,11.06
2023-01-02T05:33:01.779Z,11.08
2023-01-02T05:35:32.511Z,11.08
2023-01-02T05:37:59.676Z,11.05
2023-01-02T05:40:28.861Z,11.05
2023-01-02T05:42:55.377Z,11.04
2023-01-02T05:45:22.190Z,11.04
2023-01-02T05:47:48.647Z,11.03
2023-01-02T05:50:15.261Z,11.01
2023-01-02T05:52:45.413Z,11.02
2023-01-02T05:55:13.243Z,11.01
2023-01-02T05:57:40.277Z,10.98
2023-01-02T06:00:07.374Z,10.99
2023-01-02T06:02:34.334Z,10.84
2023-01-02T06:05:00.790Z,10.63
2023-01-02T06:07:27.324Z,10.48
2023-01-02T06:09:53.776Z,10.25
2023-01-02T06:12:20.326Z,10.10
2023-01-02T06:14:46.784Z,9.99
2023-01-02T06:17:13.288Z,9.91
2023-01-02T06:19:39.703Z,9.82
2023-01-02T06:22:06.348Z,9.72
2023-01-02T06:24:32.841Z,9.69
2023-01-02T06:26:59.593Z,9.62
2023-01-02T06:29:26.080Z,9.57
2023-01-02T06:31:52.619Z,9.47
2023-01-02T06:34:19.202Z,9.44
2023-01-02T06:36:45.917Z,9.39
2023-01-02T06:39:12.434Z,9.32
2023-01-02T06:41:38.881Z,9.24
2023-01-02T06:44:05.470Z,9.23
2023-01-02T06:46:31.912Z,9.19
2023-01-02T06:48:58.363Z,9.14
2023-01-02T06:51:25.059Z,9.13
2023-01-02T06:53:51.866Z,9.08
2023-01-02T06:56:19.794Z,9.07
2023-01-02T06:58:47.480Z,9.00
2023-01-02T07:01:19.954Z,8.95
2023-01-02T07:03:46.761Z,8.92
2023-01-02T07:06:16.320Z,8.90
2023-01-02T07:08:43.575Z,8.89
2023-01-02T07:11:21.461Z,8.84
2023-01-02T07:13:50.275Z,8.83
2023-01-02T07:16:18.911Z,8.80
2023-01-02T07:18:46.037Z,8.83
2023-01-02T07:21:14.212Z,8.79
2023-01-02T07:23:41.527Z,8.79
2023-01-02T07:26:08.455Z,8.77
2023-01-02T07:28:36.032Z,8.73
2023-01-02T07:31:22.639Z,8.68
2023-01-02T07:33:50.409Z,8.68
2023-01-02T07:36:19.480Z,8.66
2023-01-02T07:38:50.505Z,8.65
2023-01-02T07:41:21.395Z,8.67
2023-01-02T07:44:08.504Z,8.67
2023-01-02T07:46:34.933Z,8.60
2023-01-02T07:49:01.432Z,8.64
2023-01-02T07:51:27.909Z,8.60
2023-01-02T07:53:54.932Z,8.62
2023-01-02T07:56:21.862Z,8.59
2023-01-02T07:58:48.428Z,8.62
2023-01-02T08:01:15.769Z,8.57
2023-01-02T08:03:43.192Z,8.58
2023-01-02T08:06:21.320Z,8.56
2023-01-02T08:08:53.848Z,8.50
2023-01-02T08:11:22.771Z,8.48
2023-01-02T08:13:53.484Z,8.48
2023-01-02T08:16:21.791Z,8.44
2023-01-02T08:18:51.423Z,8.40
2023-01-02T08:21:18.011Z,8.39
2023-01-02T08:23:44.600Z,8.38
2023-01-02T08:26:11.448Z,8.37
2023-01-02T08:28:42.836Z,8.37
2023-01-02T08:31:13.880Z,8.38
2023-01-02T08:33:40.491Z,8.40
2023-01-02T08:36:07.561Z,8.39
2023-01-02T08:38:33.980Z,8.38
2023-01-02T08:41:00.903Z,8.40
2023-01-02T08:43:28.340Z,8.41
2023-01-02T08:45:55.539Z,8.38
2023-01-02T08:48:22.165Z,8.39
2023-01-02T08:50:50.120Z,8.40
2023-01-02T08:53:17.031Z,8.39
2023-01-02T08:55:45.672Z,8.38
2023-01-02T08:58:12.672Z,8.37
2023-01-02T09:00:39.161Z,8.37
2023-01-02T09:03:05.829Z,8.33
2023-01-02T09:05:32.739Z,8.32
2023-01-02T09:07:59.286Z,8.33
2023-01-02T09:10:25.883Z,8.31
2023-01-02T09:12:52.526Z,8.32
2023-01-02T09:15:19.053Z,8.35
2023-01-02T09:17:45.538Z,8.37
2023-01-02T09:20:11.993Z,8.40
2023-01-02T09:22:38.539Z,8.45
2023-01-02T09:25:05.549Z,8.46
2023-01-02T09:27:32.359Z,8.50
2023-01-02T09:29:58.840Z,8.51
2023-01-02T09:32:25.302Z,8.50
2023-01-02T09:34:51.784Z,8.49
2023-01-02T09:37:18.281Z,8.57
2023-01-02T09:39:44.739Z,8.64
2023-01-02T09:42:15.950Z,8.68
2023-01-02T09:44:55.187Z,8.67
2023-01-02T09:47:25.289Z,8.64
2023-01-02T09:50:18.563Z,8.61
2023-01-02T09:52:53.668Z,8.61
2023-01-02T09:55:47.003Z,8.59
2023-01-02T09:58:32.874Z,8.56
2023-01-02T10:01:00.367Z,8.55
2023-01-02T10:03:43.507Z,8.52
2023-01-02T10:06:24.934Z,8.50
2023-01-02T10:09:13.676Z,8.46
2023-01-02T10:12:08.977Z,8.47
2023-01-02T10:14:55.473Z,8.51
2023-01-02T10:17:23.061Z,8.56
2023-01-02T10:19:58.390Z,8.59
2023-01-02T10:22:42.214Z,8.59
2023-01-02T10:25:18.744Z,8.66
2023-01-02T10:28:03.898Z,8.68
2023-01-02T10:30:37.080Z,8.74
2023-01-02T10:33:20.707Z,8.75
2023-01-02T10:35:53.466Z,8.76
2023-01-02T10:38:20.620Z,8.77
2023-01-02T10:40:50.478Z,8.82
2023-01-02T10:43:17.735Z,8.88
2023-01-02T10:45:44.322Z,8.91
2023-01-02T10:48:11.404Z,8.93
2023-01-02T10:50:42.072Z,8.89
2023-01-02T10:53:10.541Z,8.79
2023-01-02T10:55:42.304Z,8.84
2023-01-02T10:58:23.249Z,8.90
2023-01-02T11:01:24.331Z,8.91
2023-01-02T11:03:59.809Z,8.88
2023-01-02T11:06:38.986Z,8.85
2023-01-02T11:09:24.907Z,8.89
2023-01-02T11:11:54.253Z,8.94
2023-01-02T11:14:28.655Z,8.91
2023-01-02T11:17:06.821Z,8.94
2023-01-02T11:19:44.543Z,8.94
2023-01-02T11:22:13.420Z,9.01
2023-01-02T11:25:00.632Z,9.01
2023-01-02T11:27:32.944Z,9.00
2023-01-02T11:29:59.885Z,8.97
2023-01-02T11:32:30.049Z,8.92
2023-01-02T11:34:59.527Z,8.97
2023-01-02T11:37:26.666Z,9.00
2023-01-02T11:40:06.214Z,8.98
2023-01-02T11:43:04.587Z,9.00
2023-01-02T11:45:32.708Z,9.01
2023-01-02T11:48:03.245Z,9.03
2023-01-02T11:50:34.170Z,9.07
2023-01-02T11:53:02.553Z,9.09
2023-01-02T11:55:47.785Z,9.10
2023-01-02T11:58:35.847Z,9.11
2023-01-02T12:01:11.332Z,9.16
2023-01-02T12:03:39.725Z,9.17
2023-01-02T12:06:19.997Z,9.16
2023-01-02T12:08:52.373Z,9.09
2023-01-02T12:11:28.927Z,9.06
2023-01-02T12:14:15.576Z,9.00
2023-01-02T12:17:14.710Z,8.96
2023-01-02T12:20:00.487Z,8.96
2023-01-02T12:22:48.156Z,9.00
2023-01-02T12:25:28.650Z,9.06
2023-01-02T12:28:11.745Z,9.05
2023-01-02T12:30:48.021Z,9.00
2023-01-02T12:33:48.839Z,9.00
2023-01-02T12:37:02.540Z,9.00
2023-01-02T12:40:05.738Z,9.03
2023-01-02T12:42:42.339Z,9.03
2023-01-02T12:45:33.491Z,9.04
2023-01-02T12:48:24.596Z,9.06
2023-01-02T12:51:02.985Z,9.04
2023-01-02T12:53:48.556Z,9.04
2023-01-02T12:57:09.382Z,9.00
2023-01-02T12:59:52.346Z,9.04
2023-01-02T13:02:40.995Z,9.03
2023-01-02T13:05:19.718Z,9.00
2023-01-02T13:07:57.263Z,9.04
2023-01-02T13:10:27.303Z,9.05
2023-01-02T13:12:59.133Z,9.01
2023-01-02T13:15:32.506Z,8.99
2023-01-02T13:18:03.572Z,8.98
2023-01-02T13:20:43.363Z,8.95
2023-01-02T13:23:36.552Z,8.95
2023-01-02T13:26:08.773Z,8.93
2023-01-02T13:28:42.221Z,8.93
2023-01-02T13:31:44.723Z,8.93
2023-01-02T13:34:14.102Z,8.95
2023-01-02T13:36:46.115Z,8.91
2023-01-02T13:39:22.735Z,8.89
2023-01-02T13:42:13.715Z,8.87
2023-01-02T13:45:00.665Z,8.80
2023-01-02T13:47:39.000Z,8.76
2023-01-02T13:50:11.816Z,8.64
2023-01-02T13:52:40.385Z,8.54
2023-01-02T13:55:31.609Z,8.47
2023-01-02T13:58:13.323Z,8.48
2023-01-02T14:00:41.153Z,8.47
2023-01-02T14:03:20.861Z,8.42
2023-01-02T14:05:56.528Z,8.40
2023-01-02T14:08:25.861Z,8.42
2023-01-02T14:11:00.644Z,8.45
2023-01-02T14:13:37.260Z,8.47
2023-01-02T14:16:24.913Z,8.50
2023-01-02T14:19:12.835Z,8.44
2023-01-02T14:21:53.300Z,8.44
2023-01-02T14:24:30.850Z,8.46
2023-01-02T14:27:24.041Z,8.44
2023-01-02T14:29:53.579Z,8.45
2023-01-02T14:32:41.251Z,8.46
2023-01-02T14:35:10.712Z,8.44
2023-01-02T14:37:41.063Z,8.46
2023-01-02T14:40:32.873Z,8.47
2023-01-02T14:43:20.920Z,8.44
2023-01-02T14:45:51.076Z,8.43
2023-01-02T14:48:28.729Z,8.46
2023-01-02T14:51:03.405Z,8.43
2023-01-02T14:53:37.064Z,8.46
2023-01-02T14:56:16.935Z,8.43
2023-01-02T14:58:48.320Z,8.38
2023-01-02T15:01:42.970Z,8.38
2023-01-02T15:04:25.049Z,8.39
2023-01-02T15:07:09.977Z,8.39
2023-01-02T15:09:40.651Z,8.36
2023-01-02T15:12:44.305Z,8.36
2023-01-02T15:15:24.277Z,8.34
2023-01-02T15:17:52.122Z,8.30
2023-01-02T15:20:25.479Z,8.26
2023-01-02T15:22:53.278Z,8.24
2023-01-02T15:25:42.702Z,8.21
2023-01-02T15:28:31.379Z,8.18
2023-01-02T15:31:12.220Z,8.18
2023-01-02T15:33:38.752Z,8.15
2023-01-02T15:36:10.844Z,8.13
2023-01-02T15:38:37.934Z,8.16
2023-01-02T15:41:04.668Z,8.11
2023-01-02T15:43:52.788Z,8.11
2023-01-02T15:46:20.178Z,8.08
2023-01-02T15:48:48.371Z,8.07
2023-01-02T15:51:18.429Z,8.04
2023-01-02T15:53:47.254Z,8.05
2023-01-02T15:56:33.715Z,8.03
2023-01-02T15:59:00.552Z,7.99
2023-01-02T16:01:27.362Z,7.98
2023-01-02T16:04:00.901Z,7.96
2023-01-02T16:06:34.297Z,7.94
2023-01-02T16:09:03.998Z,7.93
2023-01-02T16:11:44.347Z,7.89
2023-01-02T16:14:19.155Z,7.84
2023-01-02T16:16:55.596Z,7.80
2023-01-02T16:20:01.492Z,7.78
2023-01-02T16:22:57.638Z,7.80
2023-01-02T16:25:32.805Z,7.74
2023-01-02T16:28:34.627Z,7.74
2023-01-02T16:31:13.358Z,7.72
2023-01-02T16:33:42.184Z,7.69
2023-01-02T16:36:29.675Z,7.63
2023-01-02T16:39:02.699Z,7.59
2023-01-02T16:41:37.266Z,7.60
2023-01-02T16:44:12.237Z,7.56
2023-01-02T16:46:39.184Z,7.53
2023-01-02T16:49:05.952Z,7.57
2023-01-02T16:51:32.679Z,7.57
2023-01-02T16:53:59.333Z,7.60
2023-01-02T16:56:25.788Z,7.59
2023-01-02T16:58:52.260Z,7.56
2023-01-02T17:01:20.642Z,7.54
2023-01-02T17:03:47.321Z,7.51
2023-01-02T17:06:16.128Z,7.47
2023-01-02T17:08:44.447Z,7.45
2023-01-02T17:11:25.314Z,7.45
2023-01-02T17:13:52.416Z,7.45
2023-01-02T17:16:21.115Z,7.48
2023-01-02T17:18:47.689Z,7.45
2023-01-02T17:21:14.131Z,7.45
2023-01-02T17:23:40.636Z,7.42
2023-01-02T17:26:07.131Z,7.38
2023-01-02T17:28:33.672Z,7.30
2023-01-02T17:31:00.323Z,7.23
2023-01-02T17:33:26.806Z,7.20
2023-01-02T17:35:53.325Z,7.11
2023-01-02T17:38:20.283Z,7.04
2023-01-02T17:40:46.766Z,6.93
2023-01-02T17:43:13.344Z,6.86
2023-01-02T17:45:41.773Z,6.76
2023-01-02T17:48:12.251Z,6.73
2023-01-02T17:50:40.040Z,6.70
2023-01-02T17:53:06.677Z,6.62
2023-01-02T17:55:33.175Z,6.54
2023-01-02T17:58:01.092Z,6.52
2023-01-02T18:00:28.530Z,6.47
2023-01-02T18:02:55.196Z,6.41
2023-01-02T18:05:22.515Z,6.33
2023-01-02T18:07:50.081Z,6.31
2023-01-02T18:10:20.395Z,6.26
2023-01-02T18:12:49.096Z,6.24
2023-01-02T18:15:16.821Z,6.19
2023-01-02T18:17:43.364Z,6.13
2023-01-02T18:20:18.508Z,6.08
2023-01-02T18:22:49.680Z,6.00
2023-01-02T18:25:19.364Z,5.94
2023-01-02T18:27:46.824Z,5.91
2023-01-02T18:30:20.073Z,5.84
2023-01-02T18:32:47.351Z,5.78
2023-01-02T18:38:23.860Z,5.70
2023-01-02T18:40:50.554Z,5.64
2023-01-02T18:43:35.795Z,5.60
2023-01-02T18:47:01.735Z,5.54
2023-01-02T18:49:28.636Z,5.46
2023-01-02T18:52:10.783Z,5.42
2023-01-02T18:54:41.808Z,5.37
2023-01-02T18:57:15.078Z,5.30
2023-01-02T18:59:47.487Z,5.26
2023-01-02T19:02:43.190Z,5.23
2023-01-02T19:05:34.440Z,5.17
2023-01-02T19:08:23.249Z,5.12
2023-01-02T19:10:55.493Z,5.07
2023-01-02T19:13:31.145Z,5.02
2023-01-02T19:16:01.736Z,5.02
2023-01-02T19:18:35.777Z,4.96
2023-01-02T19:21:25.823Z,4.91
2023-01-02T19:24:00.111Z,4.86
2023-01-02T19:26:32.709Z,4.82
2023-01-02T19:29:11.379Z,4.77
2023-01-02T19:31:40.417Z,4.74
2023-01-02T19:34:24.311Z,4.69
2023-01-02T19:36:55.203Z,4.62
2023-01-02T19:39:30.194Z,4.59
2023-01-02T19:42:15.557Z,4.54
2023-01-02T19:44:41.991Z,4.51
2023-01-02T19:47:08.634Z,4.47
2023-01-02T19:49:35.136Z,4.44
2023-01-02T19:52:01.612Z,4.38
2023-01-02T19:54:28.096Z,4.34
2023-01-02T19:56:54.792Z,4.26
2023-01-02T19:59:21.212Z,4.24
2023-01-02T20:01:47.986Z,4.20
2023-01-02T20:04:14.557Z,4.14
2023-01-02T20:06:41.149Z,4.08
2023-01-02T20:09:08.063Z,4.05
2023-01-02T20:11:53.551Z,4.03
2023-01-02T20:14:20.048Z,4.00
2023-01-02T20:16:46.556Z,3.98
2023-01-02T20:19:13.208Z,3.99
2023-01-02T20:21:39.647Z,3.99
2023-01-02T20:24:06.457Z,3.98
2023-01-02T20:26:33.233Z,3.93
2023-01-02T20:28:59.724Z,3.90
2023-01-02T20:31:26.249Z,3.85
2023-01-02T20:33:52.971Z,3.81
2023-01-02T20:36:19.459Z,3.76
2023-01-02T20:38:46.002Z,3.72
2023-01-02T20:41:12.508Z,3.65
2023-01-02T20:43:39.164Z,3.63
2023-01-02T20:46:05.754Z,3.59
2023-01-02T20:48:32.574Z,3.56
2023-01-02T20:50:59.388Z,3.54
2023-01-02T20:53:26.151Z,3.52
2023-01-02T20:55:52.578Z,3.49
2023-01-02T20:58:19.051Z,3.45
2023-01-02T21:00:45.691Z,3.43
2023-01-02T21:03:12.444Z,3.39
2023-01-02T21:05:42.289Z,3.36
2023-01-02T21:08:08.956Z,3.35
2023-01-02T21:10:36.111Z,3.35
2023-01-02T21:13:09.647Z,3.36
2023-01-02T21:15:56.172Z,3.38
2023-01-02T21:18:29.848Z,3.37
2023-01-02T21:20:59.297Z,3.39
2023-01-02T21:23:28.802Z,3.37
2023-01-02T21:25:56.351Z,3.37
2023-01-02T21:28:23.976Z,3.32
2023-01-02T21:30:52.111Z,3.26
2023-01-02T21:33:21.876Z,3.20
2023-01-02T21:35:50.673Z,3.15
2023-01-02T21:38:19.310Z,3.11
2023-01-02T21:40:46.141Z,3.07
2023-01-02T21:43:12.794Z,3.05
2023-01-02T21:45:39.284Z,3.00
2023-01-02T21:48:06.688Z,2.95
2023-01-02T21:50:33.297Z,2.95
2023-01-02T21:53:00.144Z,2.96
2023-01-02T21:55:26.891Z,2.93
2023-01-02T21:58:14.765Z,2.91
2023-01-02T22:00:42.341Z,2.87
2023-01-02T22:03:09.146Z,2.88
2023-01-02T22:05:35.863Z,2.86
2023-01-02T22:08:02.515Z,2.85
2023-01-02T22:10:29.157Z,2.88
2023-01-02T22:12:55.790Z,2.88
2023-01-02T22:15:22.309Z,2.88
2023-01-02T22:17:48.822Z,2.88
2023-01-02T22:20:15.581Z,2.87
2023-01-02T22:22:42.010Z,2.85
2023-01-02T22:25:09.591Z,2.85
2023-01-02T22:27:36.429Z,2.84
2023-01-02T22:30:24.333Z,2.87
2023-01-02T22:32:50.501Z,2.83
2023-01-02T22:35:17.283Z,2.78
2023-01-02T22:37:43.720Z,2.76
2023-01-02T22:40:10.834Z,2.76
2023-01-02T22:43:01.510Z,2.74
2023-01-02T22:45:51.809Z,2.71
2023-01-02T22:48:25.785Z,2.70
2023-01-02T22:50:56.273Z,2.68
2023-01-02T22:53:22.794Z,2.70
2023-01-02T22:55:50.147Z,2.73
2023-01-02T22:58:16.808Z,2.70
2023-01-02T23:00:45.438Z,2.71
2023-01-02T23:03:13.967Z,2.71
2023-01-02T23:08:10.822Z,2.70
2023-01-02T23:10:37.686Z,2.72
2023-01-02T23:13:04.455Z,2.70
2023-01-02T23:15:31.196Z,2.68
2023-01-02T23:18:16.373Z,2.66
2023-01-02T23:20:42.942Z,2.65
2023-01-02T23:23:09.519Z,2.65
2023-01-02T23:25:43.104Z,2.64
2023-01-02T23:28:10.047Z,2.63
2023-01-02T23:30:40.086Z,2.60
2023-01-02T23:33:06.543Z,2.59
2023-01-02T23:35:33.025Z,2.56
2023-01-02T23:37:59.503Z,2.51
2023-01-02T23:40:29.374Z,2.47
2023-01-02T23:43:00.367Z,2.45
2023-01-02T23:45:26.895Z,2.41
2023-01-02T23:47:53.430Z,2.38
2023-01-02T23:50:20.054Z,2.36
2023-01-02T23:52:46.521Z,2.33
2023-01-02T23:55:13.023Z,2.29
2023-01-02T23:57:39.535Z,2.28
